createdAt,value
2022-10-09T00:01:31.617Z,4.00
2022-10-09T00:04:00.014Z,3.88
2022-10-09T00:06:32.447Z,3.42
2022-10-09T00:09:02.226Z,4.53
2022-10-09T00:11:33.069Z,3.40
2022-10-09T00:14:01.693Z,4.20
2022-10-09T00:16:29.431Z,4.07
2022-10-09T00:18:57.212Z,4.28
2022-10-09T00:21:31.802Z,4.50
2022-10-09T00:24:02.536Z,3.47
2022-10-09T00:26:30.831Z,4.13
2022-10-09T00:28:58.397Z,4.95
2022-10-09T00:31:25.830Z,3.75
2022-10-09T00:33:53.304Z,4.18
2022-10-09T00:36:25.315Z,4.25
2022-10-09T00:38:54.603Z,5.32
2022-10-09T00:41:27.074Z,5.38
2022-10-09T00:44:02.114Z,4.90
2022-10-09T00:46:50.470Z,5.32
2022-10-09T00:49:29.933Z,4.78
2022-10-09T00:52:03.777Z,4.93
2022-10-09T00:54:35.681Z,4.50
2022-10-09T00:57:03.649Z,5.35
2022-10-09T00:59:31.834Z,5.45
2022-10-09T01:01:59.374Z,4.38
2022-10-09T01:04:26.984Z,4.70
2022-10-09T01:07:22.929Z,5.43
2022-10-09T01:10:03.125Z,4.60
2022-10-09T01:12:50.060Z,5.13
2022-10-09T01:15:33.884Z,5.50
2022-10-09T01:18:16.233Z,5.05
2022-10-09T01:20:58.664Z,4.43
2022-10-09T01:23:40.887Z,5.50
2022-10-09T01:26:28.531Z,4.65
2022-10-09T01:29:03.055Z,4.63
2022-10-09T01:31:37.097Z,4.38
2022-10-09T01:34:07.723Z,4.68
2022-10-09T01:36:37.210Z,4.47
2022-10-09T01:39:09.252Z,4.88
2022-10-09T01:41:37.561Z,5.03
2022-10-09T01:44:20.118Z,4.75
2022-10-09T01:46:47.915Z,4.70
2022-10-09T01:49:52.178Z,5.03
2022-10-09T01:52:50.097Z,4.70
2022-10-09T01:55:43.305Z,5.18
2022-10-09T01:58:30.471Z,4.88
2022-10-09T02:01:16.744Z,4.68
2022-10-09T02:03:50.849Z,5.25
2022-10-09T02:06:20.515Z,5.85
2022-10-09T02:08:53.037Z,5.40
2022-10-09T02:11:21.877Z,4.80
2022-10-09T02:13:52.914Z,4.85
2022-10-09T02:16:39.137Z,4.50
2022-10-09T02:19:32.346Z,4.90
2022-10-09T02:22:05.412Z,4.97
2022-10-09T02:24:33.341Z,5.20
2022-10-09T02:27:02.626Z,5.43
2022-10-09T02:29:29.990Z,5.18
2022-10-09T02:31:57.317Z,4.88
2022-10-09T02:34:25.184Z,5.18
2022-10-09T02:36:52.638Z,5.25
2022-10-09T02:39:22.549Z,5.05
2022-10-09T02:41:49.889Z,5.18
2022-10-09T02:44:17.408Z,5.63
2022-10-09T02:46:44.820Z,5.00
2022-10-09T02:49:12.281Z,5.15
2022-10-09T02:51:39.700Z,5.50
2022-10-09T02:54:07.391Z,6.15
2022-10-09T02:56:38.739Z,5.60
2022-10-09T02:59:07.521Z,5.45
2022-10-09T03:01:35.461Z,5.18
2022-10-09T03:04:02.972Z,5.18
2022-10-09T03:06:30.704Z,5.68
2022-10-09T03:08:58.280Z,5.25
2022-10-09T03:11:26.818Z,4.82
2022-10-09T03:13:54.884Z,3.90
2022-10-09T03:16:25.754Z,4.88
2022-10-09T03:18:54.640Z,4.43
2022-10-09T03:21:27.892Z,5.38
2022-10-09T03:23:56.307Z,4.70
2022-10-09T03:26:26.984Z,5.10
2022-10-09T03:28:55.925Z,5.80
2022-10-09T03:34:13.877Z,5.50
2022-10-09T03:36:42.201Z,6.20
2022-10-09T03:39:09.954Z,5.75
2022-10-09T03:41:37.325Z,5.22
2022-10-09T03:44:04.820Z,4.80
2022-10-09T03:46:32.265Z,5.82
2022-10-09T03:48:59.628Z,5.70
2022-10-09T03:51:27.399Z,5.95
2022-10-09T03:53:54.745Z,6.78
2022-10-09T03:56:22.160Z,6.38
2022-10-09T03:58:49.491Z,6.75
2022-10-09T04:01:16.892Z,6.63
2022-10-09T04:03:44.362Z,5.95
2022-10-09T04:06:12.188Z,6.25
2022-10-09T04:08:39.550Z,5.43
2022-10-09T04:11:06.925Z,5.70
2022-10-09T04:13:34.265Z,5.18
2022-10-09T04:16:01.655Z,5.25
2022-10-09T04:18:29.016Z,4.30
2022-10-09T04:20:57.344Z,4.38
2022-10-09T04:23:27.030Z,3.63
2022-10-09T04:25:56.629Z,3.97
2022-10-09T04:28:24.844Z,4.13
2022-10-09T04:30:52.805Z,3.80
2022-10-09T04:33:20.693Z,4.38
2022-10-09T04:35:53.163Z,4.35
2022-10-09T04:38:21.082Z,3.83
2022-10-09T04:41:03.160Z,3.70
2022-10-09T04:43:31.503Z,3.42
2022-10-09T04:45:59.350Z,3.50
2022-10-09T04:48:27.734Z,3.40
2022-10-09T04:50:55.079Z,3.70
2022-10-09T04:53:22.448Z,3.75
2022-10-09T04:55:49.763Z,3.80
2022-10-09T04:58:17.230Z,3.90
2022-10-09T05:00:46.596Z,3.90
2022-10-09T05:03:14.334Z,4.20
2022-10-09T05:05:41.676Z,4.28
2022-10-09T05:08:09.039Z,4.10
2022-10-09T05:10:36.492Z,4.10
2022-10-09T05:13:04.191Z,3.90
2022-10-09T05:15:32.210Z,4.25
2022-10-09T05:17:59.547Z,4.63
2022-10-09T05:20:27.046Z,4.63
2022-10-09T05:22:54.379Z,4.25
2022-10-09T05:25:21.710Z,5.25
2022-10-09T05:27:49.086Z,4.95
2022-10-09T05:30:16.463Z,4.85
2022-10-09T05:32:43.801Z,4.72
2022-10-09T05:35:11.193Z,4.45
2022-10-09T05:37:38.675Z,5.38
2022-10-09T05:40:06.973Z,5.20
2022-10-09T05:42:34.600Z,4.95
2022-10-09T05:45:01.969Z,4.90
2022-10-09T05:47:32.252Z,5.93
2022-10-09T05:49:59.688Z,5.57
2022-10-09T05:52:27.016Z,6.50
2022-10-09T05:54:54.484Z,7.00
2022-10-09T05:57:21.849Z,7.30
2022-10-09T05:59:49.247Z,7.35
2022-10-09T06:02:16.631Z,7.18
2022-10-09T06:04:44.033Z,6.20
2022-10-09T06:07:11.421Z,7.03
2022-10-09T06:09:38.744Z,8.63
2022-10-09T06:12:06.376Z,7.90
2022-10-09T06:14:33.763Z,8.32
2022-10-09T06:17:01.596Z,8.25
2022-10-09T06:19:29.013Z,8.40
2022-10-09T06:21:56.347Z,8.57
2022-10-09T06:24:29.156Z,7.70
2022-10-09T06:26:57.819Z,8.43
2022-10-09T06:29:25.913Z,8.05
2022-10-09T06:31:53.597Z,8.25
2022-10-09T06:34:20.995Z,9.02
2022-10-09T06:36:48.838Z,8.35
2022-10-09T06:39:16.981Z,7.85
2022-10-09T06:41:44.324Z,8.95
2022-10-09T06:44:24.179Z,10.90
2022-10-09T06:46:51.593Z,11.00
2022-10-09T06:49:18.984Z,9.73
2022-10-09T06:51:46.340Z,9.32
2022-10-09T06:54:17.179Z,10.02
2022-10-09T06:56:44.791Z,12.30
2022-10-09T06:59:13.224Z,9.68
2022-10-09T07:01:40.882Z,10.40
2022-10-09T07:04:14.463Z,11.45
2022-10-09T07:06:46.679Z,9.27
2022-10-09T07:09:15.852Z,10.02
2022-10-09T07:11:49.185Z,10.75
2022-10-09T07:14:17.103Z,10.55
2022-10-09T07:16:48.277Z,11.95
2022-10-09T07:19:17.593Z,11.00
2022-10-09T07:21:48.564Z,11.57
2022-10-09T07:24:17.632Z,11.63
2022-10-09T07:26:46.992Z,11.02
2022-10-09T07:29:17.661Z,11.73
2022-10-09T07:31:45.473Z,11.75
2022-10-09T07:34:12.938Z,12.68
2022-10-09T07:36:40.279Z,12.98
2022-10-09T07:39:08.187Z,12.63
2022-10-09T07:41:35.691Z,12.73
2022-10-09T07:44:03.484Z,12.65
2022-10-09T07:46:33.692Z,12.68
2022-10-09T07:49:02.968Z,12.53
2022-10-09T07:51:31.963Z,11.02
2022-10-09T07:54:01.770Z,11.70
2022-10-09T07:56:36.105Z,11.70
2022-10-09T07:59:12.829Z,10.77
2022-10-09T08:01:41.199Z,11.15
2022-10-09T08:04:09.124Z,11.80
2022-10-09T08:06:36.910Z,11.52
2022-10-09T08:09:06.991Z,10.63
2022-10-09T08:11:35.234Z,10.75
2022-10-09T08:14:02.588Z,11.07
2022-10-09T08:16:32.211Z,10.45
2022-10-09T08:19:01.373Z,11.05
2022-10-09T08:21:29.238Z,10.07
2022-10-09T08:23:58.585Z,10.02
2022-10-09T08:26:29.821Z,11.32
2022-10-09T08:29:03.706Z,10.88
2022-10-09T08:31:32.555Z,10.60
2022-10-09T08:34:03.593Z,11.10
2022-10-09T08:36:32.311Z,11.52
2022-10-09T08:38:59.745Z,11.23
2022-10-09T08:41:33.147Z,12.07
2022-10-09T08:44:13.432Z,11.00
2022-10-09T08:46:56.107Z,11.00
2022-10-09T08:49:37.466Z,10.32
2022-10-09T08:52:55.522Z,9.50
2022-10-09T08:55:28.463Z,11.05
2022-10-09T08:58:04.254Z,9.80
2022-10-09T09:00:44.382Z,8.70
2022-10-09T09:03:43.594Z,9.25
2022-10-09T09:06:31.356Z,8.98
2022-10-09T09:09:13.738Z,9.35
2022-10-09T09:11:50.419Z,8.95
2022-10-09T09:14:36.303Z,8.80
2022-10-09T09:17:14.884Z,8.98
2022-10-09T09:20:04.211Z,8.10
2022-10-09T09:22:34.237Z,8.88
2022-10-09T09:25:19.773Z,9.07
2022-10-09T09:27:47.995Z,8.32
2022-10-09T09:30:27.127Z,7.88
2022-10-09T09:33:18.622Z,8.00
2022-10-09T09:36:11.980Z,8.45
2022-10-09T09:38:54.752Z,7.95
2022-10-09T09:41:29.044Z,7.93
2022-10-09T09:43:58.311Z,8.95
2022-10-09T09:46:30.598Z,7.47
2022-10-09T09:48:57.983Z,7.57
2022-10-09T09:51:30.315Z,8.00
2022-10-09T09:54:14.017Z,9.10
2022-10-09T09:59:43.827Z,7.72
2022-10-09T10:02:21.492Z,8.00
2022-10-09T10:05:06.039Z,7.13
2022-10-09T10:07:37.568Z,8.20
2022-10-09T10:10:19.787Z,7.93
2022-10-09T10:12:55.409Z,7.60
2022-10-09T10:15:30.438Z,6.43
2022-10-09T10:18:15.428Z,7.05
2022-10-09T10:20:56.523Z,6.63
2022-10-09T10:23:46.631Z,5.70
2022-10-09T10:26:24.708Z,5.88
2022-10-09T10:29:01.853Z,6.07
2022-10-09T10:32:13.945Z,6.22
2022-10-09T10:34:52.524Z,5.63
2022-10-09T10:37:50.454Z,5.65
2022-10-09T10:40:28.199Z,5.60
2022-10-09T10:43:13.250Z,5.63
2022-10-09T10:46:04.556Z,5.10
2022-10-09T10:48:41.633Z,5.47
2022-10-09T10:51:20.025Z,5.78
2022-10-09T10:54:21.438Z,5.25
2022-10-09T10:56:58.814Z,4.68
2022-10-09T10:59:39.409Z,5.10
2022-10-09T11:02:09.928Z,5.05
2022-10-09T11:05:26.959Z,5.53
2022-10-09T11:08:38.799Z,4.85
2022-10-09T11:11:33.769Z,4.63
2022-10-09T11:14:36.046Z,4.97
2022-10-09T11:17:41.624Z,5.13
2022-10-09T11:20:49.500Z,4.68
2022-10-09T11:23:36.821Z,4.30
2022-10-09T11:26:49.814Z,4.40
2022-10-09T11:29:30.066Z,4.53
2022-10-09T11:32:10.655Z,4.68
2022-10-09T11:34:46.789Z,5.13
2022-10-09T11:37:22.589Z,4.50
2022-10-09T11:39:49.912Z,4.35
2022-10-09T11:42:22.881Z,4.88
2022-10-09T11:45:09.169Z,4.10
2022-10-09T11:48:08.055Z,4.30
2022-10-09T11:50:45.326Z,4.13
2022-10-09T11:53:20.713Z,4.05
2022-10-09T11:55:48.221Z,4.15
2022-10-09T11:58:18.576Z,4.00
2022-10-09T12:00:50.516Z,3.97
2022-10-09T12:03:37.786Z,3.40
2022-10-09T12:06:09.406Z,3.58
2022-10-09T12:11:15.214Z,3.45
2022-10-09T12:13:52.921Z,2.80
2022-10-09T12:16:42.121Z,2.70
2022-10-09T12:19:20.980Z,2.97
2022-10-09T12:22:20.370Z,3.70
2022-10-09T12:24:52.968Z,2.72
2022-10-09T12:27:37.908Z,2.67
2022-10-09T12:30:22.550Z,2.53
2022-10-09T12:32:58.630Z,3.08
2022-10-09T12:35:38.819Z,2.38
2022-10-09T12:38:27.093Z,2.67
2022-10-09T12:41:00.281Z,2.45
2022-10-09T12:43:29.992Z,2.17
2022-10-09T12:45:57.907Z,2.63
2022-10-09T12:48:28.950Z,2.42
2022-10-09T12:50:56.522Z,2.42
2022-10-09T12:53:27.752Z,2.33
2022-10-09T12:56:00.546Z,2.33
2022-10-09T12:58:36.723Z,2.28
2022-10-09T13:01:11.848Z,2.00
2022-10-09T13:03:45.706Z,1.60
2022-10-09T13:06:24.564Z,1.60
2022-10-09T13:09:04.169Z,1.85
2022-10-09T13:11:38.007Z,1.80
2022-10-09T13:14:05.467Z,1.70
2022-10-09T13:16:43.481Z,1.73
2022-10-09T13:19:32.582Z,1.90
2022-10-09T13:22:01.096Z,2.08
2022-10-09T13:24:29.527Z,2.17
2022-10-09T13:26:56.881Z,2.28
2022-10-09T13:29:24.605Z,1.88
2022-10-09T13:31:52.038Z,1.88
2022-10-09T13:34:19.433Z,1.70
2022-10-09T13:36:46.810Z,1.85
2022-10-09T13:39:15.729Z,2.00
2022-10-09T13:41:45.156Z,1.70
2022-10-09T13:44:12.526Z,1.80
2022-10-09T13:46:39.969Z,1.60
2022-10-09T13:49:07.350Z,1.88
2022-10-09T13:51:36.064Z,1.98
2022-10-09T13:54:03.569Z,1.85
2022-10-09T13:56:30.898Z,2.17
2022-10-09T13:58:58.388Z,2.10
2022-10-09T14:01:25.853Z,2.00
2022-10-09T14:03:53.247Z,1.95
2022-10-09T14:06:22.344Z,1.63
2022-10-09T14:08:50.132Z,2.28
2022-10-09T14:11:17.589Z,1.77
2022-10-09T14:13:45.210Z,1.75
2022-10-09T14:16:12.689Z,2.10
2022-10-09T14:18:40.025Z,2.33
2022-10-09T14:21:15.883Z,1.73
2022-10-09T14:23:43.721Z,2.20
2022-10-09T14:26:11.137Z,2.20
2022-10-09T14:28:38.814Z,1.90
2022-10-09T14:31:07.793Z,2.30
2022-10-09T14:33:35.327Z,2.55
2022-10-09T14:36:09.076Z,2.10
2022-10-09T14:38:38.777Z,2.17
2022-10-09T14:41:07.298Z,2.10
2022-10-09T14:43:35.780Z,2.17
2022-10-09T14:46:12.061Z,1.98
2022-10-09T14:48:40.106Z,1.67
2022-10-09T14:51:18.109Z,1.83
2022-10-09T14:53:46.116Z,2.05
2022-10-09T14:56:20.031Z,2.00
2022-10-09T14:58:48.263Z,1.70
2022-10-09T15:01:19.592Z,1.63
2022-10-09T15:03:48.218Z,1.75
2022-10-09T15:06:18.279Z,1.80
2022-10-09T15:08:45.735Z,2.00
2022-10-09T15:11:13.331Z,1.60
2022-10-09T15:13:40.762Z,1.52
2022-10-09T15:16:14.611Z,2.15
2022-10-09T15:18:43.847Z,1.23
2022-10-09T15:21:30.081Z,1.90
2022-10-09T15:23:59.650Z,1.48
2022-10-09T15:26:29.969Z,1.38
2022-10-09T15:28:57.737Z,1.75
2022-10-09T15:31:38.326Z,1.40
2022-10-09T15:34:07.740Z,1.52
2022-10-09T15:36:39.569Z,1.45
2022-10-09T15:39:08.813Z,1.50
2022-10-09T15:41:39.478Z,1.45
2022-10-09T15:44:19.021Z,1.43
2022-10-09T15:46:48.614Z,1.50
2022-10-09T15:49:16.294Z,1.23
2022-10-09T15:51:43.853Z,1.45
2022-10-09T15:54:12.845Z,1.50
2022-10-09T15:56:41.398Z,1.73
2022-10-09T15:59:16.909Z,1.73
2022-10-09T16:01:44.610Z,1.27
2022-10-09T16:04:12.200Z,1.45
2022-10-09T16:06:39.668Z,1.40
2022-10-09T16:09:07.721Z,1.50
2022-10-09T16:11:35.118Z,1.38
2022-10-09T16:14:02.502Z,1.48
2022-10-09T16:16:30.066Z,1.40
2022-10-09T16:18:57.543Z,1.38
2022-10-09T16:21:28.422Z,1.40
2022-10-09T16:23:59.088Z,1.40
2022-10-09T16:26:29.909Z,1.60
2022-10-09T16:29:00.111Z,1.60
2022-10-09T16:31:34.602Z,1.60
2022-10-09T16:34:05.135Z,1.15
2022-10-09T16:36:32.832Z,1.17
2022-10-09T16:39:00.268Z,1.55
2022-10-09T16:41:27.858Z,1.13
2022-10-09T16:43:57.358Z,1.60
2022-10-09T16:49:14.757Z,1.70
2022-10-09T16:51:42.823Z,2.13
2022-10-09T16:54:10.671Z,1.88
2022-10-09T16:56:40.065Z,1.75
2022-10-09T16:59:12.568Z,1.85
2022-10-09T17:01:44.988Z,1.70
2022-10-09T17:04:14.459Z,2.00
2022-10-09T17:06:43.945Z,1.88
2022-10-09T17:09:13.986Z,1.85
2022-10-09T17:11:42.348Z,1.83
2022-10-09T17:14:10.018Z,1.73
2022-10-09T17:16:42.038Z,2.00
2022-10-09T17:19:09.518Z,2.38
2022-10-09T17:21:36.924Z,2.00
2022-10-09T17:24:06.304Z,1.70
2022-10-09T17:26:34.664Z,1.88
2022-10-09T17:29:03.445Z,1.90
2022-10-09T17:31:31.632Z,2.20
2022-10-09T17:34:03.086Z,2.20
2022-10-09T17:36:35.886Z,2.45
2022-10-09T17:39:06.894Z,2.58
2022-10-09T17:41:34.689Z,2.38
2022-10-09T17:44:02.268Z,2.28
2022-10-09T17:46:30.739Z,2.28
2022-10-09T17:49:00.115Z,2.30
2022-10-09T17:51:31.073Z,2.63
2022-10-09T17:54:02.754Z,2.30
2022-10-09T17:56:32.527Z,2.60
2022-10-09T17:59:01.531Z,2.30
2022-10-09T18:01:29.696Z,2.35
2022-10-09T18:03:58.189Z,2.63
2022-10-09T18:06:26.113Z,2.13
2022-10-09T18:08:55.718Z,2.25
2022-10-09T18:11:26.596Z,2.40
2022-10-09T18:13:54.679Z,2.23
2022-10-09T18:16:35.365Z,2.45
2022-10-09T18:19:12.189Z,2.60
2022-10-09T18:21:43.754Z,2.40
2022-10-09T18:24:12.807Z,2.28
2022-10-09T18:26:42.221Z,2.20
2022-10-09T18:29:09.750Z,2.22
2022-10-09T18:31:38.441Z,2.47
2022-10-09T18:34:06.115Z,2.80
2022-10-09T18:36:34.800Z,2.10
2022-10-09T18:39:09.690Z,2.92
2022-10-09T18:41:38.029Z,2.75
2022-10-09T18:44:08.798Z,2.22
2022-10-09T18:46:42.523Z,2.20
2022-10-09T18:49:15.689Z,2.95
2022-10-09T18:51:45.198Z,2.88
2022-10-09T18:54:18.170Z,2.63
2022-10-09T18:56:46.824Z,2.65
2022-10-09T18:59:19.430Z,2.58
2022-10-09T19:01:46.812Z,2.58
2022-10-09T19:04:14.328Z,2.67
2022-10-09T19:06:41.708Z,2.70
2022-10-09T19:09:09.170Z,3.10
2022-10-09T19:11:36.620Z,2.47
2022-10-09T19:14:04.499Z,2.58
2022-10-09T19:16:34.534Z,2.72
2022-10-09T19:19:02.332Z,2.60
2022-10-09T19:21:29.837Z,2.70
2022-10-09T19:24:03.272Z,2.65
2022-10-09T19:26:32.664Z,2.45
2022-10-09T19:29:00.280Z,3.10
2022-10-09T19:31:27.759Z,2.60
2022-10-09T19:33:55.138Z,2.60
2022-10-09T19:36:22.632Z,3.05
2022-10-09T19:38:50.529Z,2.80
2022-10-09T19:41:17.891Z,2.70
2022-10-09T19:43:45.342Z,2.58
2022-10-09T19:46:18.396Z,2.40
2022-10-09T19:48:46.946Z,2.83
2022-10-09T19:51:21.208Z,3.08
2022-10-09T19:53:52.028Z,2.67
2022-10-09T19:56:24.897Z,2.90
2022-10-09T19:58:54.343Z,2.90
2022-10-09T20:01:26.814Z,2.78
2022-10-09T20:04:10.975Z,3.55
2022-10-09T20:06:41.811Z,3.20
2022-10-09T20:09:11.752Z,3.38
2022-10-09T20:11:39.316Z,3.40
2022-10-09T20:14:07.782Z,3.40
2022-10-09T20:16:36.584Z,3.42
2022-10-09T20:19:04.714Z,3.72
2022-10-09T20:21:33.201Z,3.80
2022-10-09T20:24:01.443Z,3.75
2022-10-09T20:26:31.383Z,3.75
2022-10-09T20:28:59.371Z,3.75
2022-10-09T20:31:28.217Z,4.13
2022-10-09T20:33:56.180Z,4.00
2022-10-09T20:36:35.930Z,3.65
2022-10-09T20:39:12.312Z,4.32
2022-10-09T20:41:41.590Z,4.38
2022-10-09T20:44:10.843Z,4.28
2022-10-09T20:46:40.196Z,4.15
2022-10-09T20:49:12.776Z,4.40
2022-10-09T20:51:40.849Z,4.57
2022-10-09T20:54:16.442Z,4.32
2022-10-09T20:56:45.009Z,4.55
2022-10-09T20:59:14.988Z,4.13
2022-10-09T21:01:42.891Z,4.50
2022-10-09T21:04:11.139Z,4.80
2022-10-09T21:06:39.307Z,4.47
2022-10-09T21:09:07.300Z,3.90
2022-10-09T21:11:35.792Z,4.68
2022-10-09T21:14:03.582Z,4.82
2022-10-09T21:16:31.029Z,4.97
2022-10-09T21:19:02.421Z,4.43
2022-10-09T21:21:31.506Z,4.82
2022-10-09T21:24:00.543Z,4.65
2022-10-09T21:26:30.959Z,5.07
2022-10-09T21:28:59.990Z,4.97
2022-10-09T21:31:31.128Z,5.45
2022-10-09T21:34:00.875Z,5.40
2022-10-09T21:37:02.301Z,5.05
2022-10-09T21:39:32.071Z,4.55
2022-10-09T21:41:59.610Z,4.88
2022-10-09T21:44:27.605Z,5.10
2022-10-09T21:46:55.031Z,5.57
2022-10-09T21:49:27.206Z,5.13
2022-10-09T21:51:55.503Z,5.05
2022-10-09T21:54:23.253Z,5.57
2022-10-09T21:56:50.850Z,5.15
2022-10-09T21:59:18.221Z,5.10
2022-10-09T22:01:45.612Z,5.22
2022-10-09T22:04:19.016Z,5.25
2022-10-09T22:06:46.501Z,5.63
2022-10-09T22:09:13.968Z,5.65
2022-10-09T22:11:41.472Z,5.72
2022-10-09T22:14:08.808Z,5.43
2022-10-09T22:16:36.354Z,5.93
2022-10-09T22:19:03.946Z,5.18
2022-10-09T22:21:31.363Z,5.85
2022-10-09T22:24:00.899Z,4.97
2022-10-09T22:26:28.370Z,5.88
2022-10-09T22:28:55.725Z,5.60
2022-10-09T22:31:26.905Z,6.05
2022-10-09T22:33:58.363Z,5.80
2022-10-09T22:36:32.198Z,5.10
2022-10-09T22:39:04.215Z,5.15
2022-10-09T22:41:32.944Z,5.55
2022-10-09T22:44:01.792Z,5.78
2022-10-09T22:46:37.243Z,5.82
2022-10-09T22:49:07.014Z,5.68
2022-10-09T22:51:34.892Z,5.30
2022-10-09T22:54:02.322Z,5.95
2022-10-09T22:56:40.046Z,5.53
2022-10-09T22:59:09.919Z,5.38
2022-10-09T23:01:48.698Z,5.50
2022-10-09T23:04:18.069Z,5.35
2022-10-09T23:06:57.386Z,6.03
2022-10-09T23:09:31.878Z,5.55
2022-10-09T23:12:00.090Z,5.63
2022-10-09T23:14:28.062Z,5.68
2022-10-09T23:16:55.540Z,5.43
2022-10-09T23:19:23.029Z,4.88
2022-10-09T23:21:50.399Z,5.50
2022-10-09T23:24:18.021Z,5.20
2022-10-09T23:26:49.914Z,5.03
2022-10-09T23:29:19.206Z,5.45
2022-10-09T23:31:46.954Z,6.00
2022-10-09T23:34:14.516Z,6.10
2022-10-09T23:36:41.898Z,5.65
2022-10-09T23:39:09.857Z,5.47
2022-10-09T23:41:37.933Z,5.85
2022-10-09T23:44:05.339Z,5.68
2022-10-09T23:46:33.797Z,5.50
2022-10-09T23:49:04.634Z,6.35
2022-10-09T23:51:33.864Z,5.80
2022-10-09T23:54:01.518Z,5.57
2022-10-09T23:56:37.265Z,6.05
2022-10-09T23:59:06.611Z,6.10
